Аэропорт: Жезказган. Жезказган

ICAO: UAKD

METAR:
2018/09/23 11:00
UAKD 231100Z 30005MPS 260V360 9999 BKN040CB BKN100 18/06 Q1016 R04/0///65 NOSIG RMK QFE728/0971
METAR:
2017/04/10 09:39
TAF TAF UAKD 101100Z 1009/1021 16012MPS 9999 SCT100